Time;durP1;ratioP1;P1;durP2;ratioP2;P2;SDS_P1;SDS_P2;PMS_P1;PMS_P2;Temp;Humidity;BMP_temperature;BMP_pressure;BME280_temperature;BME280_humidity;BME280_pressure;Samples;Min_cycle;Max_cycle;Signal;HPM_P1;HPM_P2
2023/12/22 00:00:24;;;;;;;0.50;0.10;;;6.40;99.90;;;;;;4992322;28;20038;-52
2023/12/22 00:02:50;;;;;;;0.25;0.10;;;6.50;99.90;;;;;;4979802;28;20051;-63
2023/12/22 00:05:17;;;;;;;1.48;0.10;;;6.40;99.90;;;;;;4986350;28;20051;-55
2023/12/22 00:07:44;;;;;;;1.08;0.30;;;6.30;99.90;;;;;;4982279;28;20062;-55
2023/12/22 00:10:11;;;;;;;2.35;0.20;;;6.60;99.90;;;;;;4982232;28;20046;-56
2023/12/22 00:12:38;;;;;;;0.70;0.40;;;6.70;99.90;;;;;;4981762;28;20050;-55
2023/12/22 00:15:06;;;;;;;1.27;0.30;;;6.60;99.90;;;;;;4978453;28;20046;-53
2023/12/22 00:17:32;;;;;;;0.85;0.20;;;6.60;99.90;;;;;;4990470;28;20049;-53
2023/12/22 00:20:02;;;;;;;0.32;0.20;;;6.90;99.90;;;;;;4977877;28;20407;-53
2023/12/22 00:22:30;;;;;;;1.98;0.30;;;7.10;99.90;;;;;;4976031;28;20077;-55
2023/12/22 00:24:57;;;;;;;4.00;0.40;;;7.10;99.90;;;;;;4982097;28;20134;-52
2023/12/22 00:27:23;;;;;;;0.50;0.38;;;7.20;99.90;;;;;;4977213;28;20052;-52
2023/12/22 00:29:50;;;;;;;0.52;0.30;;;7.10;99.90;;;;;;4981142;28;20510;-55
2023/12/22 00:32:17;;;;;;;4.43;0.43;;;7.20;99.90;;;;;;4983465;28;20060;-53
2023/12/22 00:34:44;;;;;;;2.85;0.57;;;7.40;99.90;;;;;;4978225;28;20507;-53
2023/12/22 00:37:12;;;;;;;1.17;0.40;;;7.30;99.90;;;;;;4978095;28;20048;-55
2023/12/22 00:39:39;;;;;;;1.42;0.30;;;7.60;99.90;;;;;;4979074;28;20049;-52
2023/12/22 00:42:05;;;;;;;2.22;0.35;;;7.60;99.90;;;;;;4980791;28;20484;-52
2023/12/22 00:44:32;;;;;;;2.20;0.55;;;7.50;99.90;;;;;;4990464;28;20050;-54
2023/12/22 00:46:59;;;;;;;0.80;0.35;;;7.50;99.90;;;;;;5004434;28;20041;-52
2023/12/22 00:49:26;;;;;;;2.00;0.40;;;7.50;99.90;;;;;;4988820;28;20034;-52
2023/12/22 00:51:53;;;;;;;2.53;0.50;;;7.70;99.90;;;;;;5001820;28;20129;-52
2023/12/22 00:54:19;;;;;;;3.60;0.50;;;7.60;99.90;;;;;;4985606;28;20129;-55
2023/12/22 00:56:46;;;;;;;2.67;0.45;;;7.50;99.90;;;;;;4981231;28;20407;-54
2023/12/22 00:59:13;;;;;;;1.77;0.52;;;7.40;99.90;;;;;;4978541;28;20042;-57
2023/12/22 01:01:40;;;;;;;2.95;0.30;;;7.20;99.90;;;;;;4981479;28;20061;-54
2023/12/22 01:04:08;;;;;;;0.65;0.20;;;7.00;99.90;;;;;;4979691;28;20046;-55
2023/12/22 01:06:38;;;;;;;0.52;0.10;;;6.80;99.90;;;;;;4987043;28;20129;-54
2023/12/22 01:09:06;;;;;;;2.63;0.28;;;6.60;99.90;;;;;;4989588;28;20061;-53
2023/12/22 01:11:32;;;;;;;0.03;0.00;;;5.30;99.90;;;;;;5000828;28;20120;-52
2023/12/22 01:13:59;;;;;;;0.10;0.08;;;4.30;99.90;;;;;;4985769;28;20046;-54
2023/12/22 01:16:26;;;;;;;0.10;0.10;;;3.80;99.90;;;;;;4990127;28;20462;-52
2023/12/22 01:18:53;;;;;;;1.75;0.08;;;3.50;99.90;;;;;;5004572;28;20048;-53
2023/12/22 01:21:20;;;;;;;2.92;0.10;;;3.30;99.90;;;;;;5004005;28;20380;-52
2023/12/22 01:23:47;;;;;;;0.75;0.10;;;3.10;99.90;;;;;;4978375;28;20046;-54
2023/12/22 01:26:14;;;;;;;0.10;0.00;;;2.90;99.90;;;;;;5007714;28;20495;-51
2023/12/22 01:28:43;;;;;;;0.00;0.00;;;2.80;99.90;;;;;;4995797;28;20065;-52
2023/12/22 01:31:10;;;;;;;0.98;0.10;;;2.60;99.90;;;;;;5000380;28;20464;-56
2023/12/22 01:33:36;;;;;;;0.08;0.00;;;2.50;99.90;;;;;;5001586;28;20068;-51
2023/12/22 01:36:04;;;;;;;0.00;0.00;;;2.30;99.90;;;;;;4997619;28;20137;-52
2023/12/22 01:38:30;;;;;;;0.10;0.00;;;2.10;99.90;;;;;;5007954;28;20046;-54
2023/12/22 01:40:57;;;;;;;0.25;0.00;;;1.90;99.90;;;;;;5005401;28;20042;-55
2023/12/22 01:43:24;;;;;;;0.00;0.00;;;1.80;99.90;;;;;;5003538;28;20060;-52
2023/12/22 01:45:56;;;;;;;0.43;0.00;;;1.70;99.90;;;;;;4988704;28;20074;-52
2023/12/22 01:48:27;;;;;;;1.20;0.00;;;1.60;99.90;;;;;;4989967;28;20129;-55
2023/12/22 01:50:56;;;;;;;0.15;0.10;;;1.40;99.90;;;;;;5000806;28;20041;-51
2023/12/22 01:53:25;;;;;;;0.10;0.10;;;1.30;99.90;;;;;;5011538;28;20461;-53
2023/12/22 01:55:54;;;;;;;0.08;0.08;;;1.30;99.90;;;;;;5005556;28;20048;-55
2023/12/22 01:58:23;;;;;;;0.45;0.20;;;1.20;99.90;;;;;;4996055;28;20104;-51
2023/12/22 02:00:52;;;;;;;0.08;0.00;;;1.20;99.90;;;;;;4995246;28;20460;-54
2023/12/22 02:03:19;;;;;;;0.00;0.00;;;1.20;99.90;;;;;;5005746;28;20108;-53
2023/12/22 02:05:46;;;;;;;2.20;0.00;;;1.20;99.90;;;;;;5000038;28;20141;-52
2023/12/22 02:08:15;;;;;;;0.03;0.00;;;1.30;99.90;;;;;;5005849;28;20058;-53
2023/12/22 02:10:41;;;;;;;0.63;0.03;;;1.30;99.90;;;;;;5002723;28;20513;-54
2023/12/22 02:13:09;;;;;;;1.65;0.00;;;1.40;99.90;;;;;;4994962;28;20038;-52
2023/12/22 02:15:36;;;;;;;;;;;1.40;99.90;;;;;;5002141;28;20042;-51
2023/12/22 02:18:08;;;;;;;0.00;0.00;;;1.40;99.90;;;;;;5004134;28;19921;-51
2023/12/22 02:20:35;;;;;;;0.05;0.00;;;1.50;99.90;;;;;;4994969;28;20038;-51
2023/12/22 02:23:02;;;;;;;0.08;0.00;;;1.50;99.90;;;;;;4997969;28;20033;-55
2023/12/22 02:25:29;;;;;;;0.00;0.00;;;1.50;99.90;;;;;;5010942;28;20048;-52
2023/12/22 02:28:05;;;;;;;0.00;0.00;;;1.60;99.90;;;;;;5002713;28;20048;-55
2023/12/22 02:30:38;;;;;;;0.22;0.00;;;1.60;99.90;;;;;;4999646;28;20487;-51
2023/12/22 02:33:07;;;;;;;1.35;0.00;;;1.70;99.90;;;;;;4999066;28;20088;-53
2023/12/22 02:35:37;;;;;;;0.00;0.00;;;1.70;99.90;;;;;;4990376;28;20045;-55
2023/12/22 02:38:06;;;;;;;0.30;0.00;;;1.80;99.90;;;;;;4991659;28;20042;-53
2023/12/22 02:40:34;;;;;;;0.03;0.00;;;1.80;99.90;;;;;;4991262;28;20076;-52
2023/12/22 02:43:03;;;;;;;0.32;0.00;;;1.80;99.90;;;;;;4989423;28;20045;-51
2023/12/22 02:45:30;;;;;;;0.80;0.00;;;1.80;99.90;;;;;;4991406;28;20065;-52
2023/12/22 02:47:57;;;;;;;0.00;0.00;;;1.80;99.90;;;;;;4987931;28;20026;-52
2023/12/22 02:50:24;;;;;;;0.00;0.00;;;1.90;99.90;;;;;;4986430;28;20046;-55
2023/12/22 02:52:50;;;;;;;0.00;0.00;;;1.80;99.90;;;;;;4983098;28;20049;-53
2023/12/22 02:55:17;;;;;;;0.20;0.00;;;1.80;99.90;;;;;;4981081;28;20035;-53
2023/12/22 02:57:44;;;;;;;0.00;0.00;;;1.80;99.90;;;;;;4991512;28;20042;-53
2023/12/22 03:00:12;;;;;;;0.43;0.00;;;1.80;99.90;;;;;;4981982;28;20048;-52
2023/12/22 03:02:38;;;;;;;0.45;0.00;;;1.80;99.90;;;;;;4983547;28;20510;-54
2023/12/22 03:05:06;;;;;;;0.10;0.00;;;1.80;99.90;;;;;;4991377;28;20049;-53
2023/12/22 03:07:32;;;;;;;0.17;0.00;;;1.70;99.90;;;;;;4985974;28;20056;-52
2023/12/22 03:09:59;;;;;;;0.00;0.00;;;1.60;99.90;;;;;;4991801;28;20487;-52
2023/12/22 03:12:26;;;;;;;0.00;0.00;;;1.60;99.90;;;;;;4991604;28;20046;-52
2023/12/22 03:14:53;;;;;;;0.10;0.00;;;1.60;99.90;;;;;;4990544;28;20038;-53
2023/12/22 03:17:20;;;;;;;0.35;0.00;;;1.60;99.90;;;;;;4989854;28;20046;-54
2023/12/22 03:19:46;;;;;;;0.00;0.00;;;1.60;99.90;;;;;;4991791;28;20047;-52
2023/12/22 03:22:13;;;;;;;0.43;0.00;;;1.70;99.90;;;;;;4988231;28;20488;-54
2023/12/22 03:24:40;;;;;;;0.43;0.13;;;1.70;99.90;;;;;;4993061;28;20050;-52
2023/12/22 03:27:07;;;;;;;0.15;0.03;;;1.60;99.90;;;;;;4993830;28;20043;-51
2023/12/22 03:29:34;;;;;;;0.20;0.00;;;1.70;99.90;;;;;;4993557;28;20042;-52
2023/12/22 03:32:00;;;;;;;0.00;0.00;;;1.70;99.90;;;;;;4995204;28;20038;-53
2023/12/22 03:34:27;;;;;;;0.10;0.10;;;1.70;99.90;;;;;;4995017;28;20070;-54
2023/12/22 03:36:54;;;;;;;0.00;0.00;;;1.70;99.90;;;;;;4994881;28;20042;-53
2023/12/22 03:39:21;;;;;;;0.08;0.00;;;1.80;99.90;;;;;;4992370;28;20039;-54
2023/12/22 03:41:47;;;;;;;0.10;0.00;;;1.80;99.90;;;;;;4994892;28;20501;-54
2023/12/22 03:44:14;;;;;;;0.38;0.10;;;1.80;99.90;;;;;;4994463;28;20506;-54
2023/12/22 03:46:41;;;;;;;0.15;0.10;;;1.70;99.90;;;;;;4988163;28;20050;-53
2023/12/22 03:49:08;;;;;;;0.10;0.10;;;1.70;99.90;;;;;;5006273;28;20076;-51
2023/12/22 03:51:35;;;;;;;1.33;0.10;;;1.70;99.90;;;;;;4994745;28;20084;-54
2023/12/22 03:54:02;;;;;;;0.00;0.00;;;1.50;99.90;;;;;;4994621;28;20479;-53
2023/12/22 03:56:29;;;;;;;;;;;1.50;99.90;;;;;;4997453;28;20038;-55
2023/12/22 03:58:56;;;;;;;0.32;0.10;;;1.50;99.90;;;;;;4992017;28;19929;-52
2023/12/22 04:01:22;;;;;;;0.13;0.10;;;1.50;99.90;;;;;;4994279;28;20094;-52
2023/12/22 04:03:49;;;;;;;0.30;0.17;;;1.40;99.90;;;;;;4981690;28;20491;-54
2023/12/22 04:06:16;;;;;;;0.57;0.10;;;1.40;99.90;;;;;;4974728;28;20053;-51
2023/12/22 04:08:43;;;;;;;0.30;0.20;;;1.30;99.90;;;;;;4982933;28;20050;-51
2023/12/22 04:11:10;;;;;;;0.00;0.00;;;1.30;99.90;;;;;;4975261;28;20575;-53
2023/12/22 04:13:36;;;;;;;0.30;0.10;;;1.20;99.90;;;;;;4977384;28;20126;-51
2023/12/22 04:16:05;;;;;;;0.17;0.13;;;1.20;99.90;;;;;;4984715;28;20121;-52
2023/12/22 04:18:32;;;;;;;0.57;0.00;;;1.30;99.90;;;;;;4986026;28;20514;-52
2023/12/22 04:20:59;;;;;;;;;;;1.40;99.90;;;;;;4986013;28;20046;-53
2023/12/22 04:23:25;;;;;;;1.05;0.10;;;1.50;99.90;;;;;;4993897;28;19937;-52
2023/12/22 04:25:52;;;;;;;1.55;0.00;;;1.60;99.90;;;;;;4993684;28;20133;-54
2023/12/22 04:28:19;;;;;;;0.00;0.00;;;1.70;99.90;;;;;;4992594;28;20395;-53
2023/12/22 04:30:46;;;;;;;0.35;0.10;;;1.90;99.90;;;;;;4993962;28;20116;-51
2023/12/22 04:33:13;;;;;;;0.55;0.17;;;2.30;99.90;;;;;;4992955;28;20088;-54
2023/12/22 04:35:40;;;;;;;1.17;0.20;;;2.60;99.90;;;;;;4981719;28;20050;-55
2023/12/22 04:38:08;;;;;;;0.35;0.28;;;2.80;99.90;;;;;;4989991;28;20047;-52
2023/12/22 04:40:35;;;;;;;0.90;0.25;;;2.80;99.90;;;;;;4978665;28;20047;-53
2023/12/22 04:43:02;;;;;;;2.92;1.02;;;2.90;99.90;;;;;;4987634;28;20049;-55
2023/12/22 04:45:29;;;;;;;1.75;0.43;;;2.90;99.90;;;;;;4988933;28;20057;-52
2023/12/22 04:47:57;;;;;;;3.38;0.57;;;2.90;99.90;;;;;;4976985;28;20051;-54
2023/12/22 04:50:24;;;;;;;1.58;0.40;;;3.00;99.90;;;;;;4987997;28;20066;-54
2023/12/22 04:52:50;;;;;;;1.80;1.00;;;3.20;99.90;;;;;;4993532;28;20077;-52
2023/12/22 04:55:17;;;;;;;1.73;0.70;;;3.10;99.90;;;;;;4988214;28;20384;-54
2023/12/22 04:57:44;;;;;;;3.92;0.60;;;3.30;99.90;;;;;;4987945;28;20049;-52
2023/12/22 05:00:12;;;;;;;1.92;0.32;;;3.30;99.90;;;;;;4991708;28;20034;-54
2023/12/22 05:02:39;;;;;;;2.05;0.38;;;3.50;99.90;;;;;;4981023;28;20057;-53
2023/12/22 05:05:08;;;;;;;0.50;0.30;;;3.90;99.90;;;;;;4979602;28;20046;-54
2023/12/22 05:07:34;;;;;;;3.42;0.30;;;3.90;99.90;;;;;;4980789;28;20046;-54
2023/12/22 05:10:01;;;;;;;2.35;0.40;;;3.90;99.90;;;;;;4979296;28;20046;-52
2023/12/22 05:12:28;;;;;;;3.85;0.45;;;3.90;99.90;;;;;;4982839;28;20050;-52
2023/12/22 05:14:55;;;;;;;1.77;0.50;;;3.90;99.90;;;;;;4978642;28;20129;-53
2023/12/22 05:17:21;;;;;;;2.67;0.60;;;3.70;99.90;;;;;;4980784;28;20049;-51
2023/12/22 05:19:48;;;;;;;4.50;1.55;;;3.90;99.90;;;;;;4978909;28;20031;-55
2023/12/22 05:22:15;;;;;;;1.55;0.40;;;3.90;99.90;;;;;;4981368;28;20132;-53
2023/12/22 05:24:42;;;;;;;2.85;0.63;;;4.00;99.90;;;;;;4978898;28;20038;-58
2023/12/22 05:27:09;;;;;;;2.53;0.93;;;3.90;99.90;;;;;;4982869;28;20074;-51
2023/12/22 05:29:35;;;;;;;1.67;0.70;;;3.90;99.90;;;;;;4979215;28;20038;-51
2023/12/22 05:32:02;;;;;;;5.63;0.80;;;3.70;99.90;;;;;;4978923;28;20399;-52
2023/12/22 05:34:30;;;;;;;4.13;0.98;;;3.60;99.90;;;;;;4982676;28;20039;-52
2023/12/22 05:36:57;;;;;;;3.95;1.23;;;3.70;99.90;;;;;;4982943;28;20035;-55
2023/12/22 05:39:24;;;;;;;6.88;1.60;;;3.70;99.90;;;;;;4982526;28;20073;-51
2023/12/22 05:41:51;;;;;;;2.25;0.80;;;3.80;99.90;;;;;;4982173;28;20515;-55
2023/12/22 05:44:17;;;;;;;8.30;3.08;;;3.60;99.90;;;;;;4981192;28;20458;-52
2023/12/22 05:46:44;;;;;;;3.20;0.95;;;3.60;99.90;;;;;;4982853;28;20056;-54
2023/12/22 05:49:11;;;;;;;1.85;0.47;;;3.70;99.90;;;;;;4981867;28;20086;-51
2023/12/22 05:51:39;;;;;;;1.45;0.45;;;4.90;99.90;;;;;;4983398;28;20103;-51
2023/12/22 05:54:10;;;;;;;3.13;0.80;;;5.10;99.90;;;;;;4979410;28;20047;-53
2023/12/22 05:56:37;;;;;;;1.13;0.50;;;5.10;99.90;;;;;;4982838;28;20125;-53
2023/12/22 05:59:04;;;;;;;4.00;0.65;;;5.70;99.90;;;;;;4976002;28;20096;-52
2023/12/22 06:01:31;;;;;;;4.88;0.70;;;5.80;99.90;;;;;;4983000;28;20049;-52
2023/12/22 06:03:58;;;;;;;1.95;0.30;;;5.80;99.90;;;;;;4984042;28;20054;-53
2023/12/22 06:06:24;;;;;;;4.03;0.40;;;5.70;99.90;;;;;;4983763;28;20056;-56
2023/12/22 06:08:51;;;;;;;2.53;0.52;;;6.00;99.90;;;;;;4986411;28;20045;-57
2023/12/22 06:11:18;;;;;;;3.13;0.40;;;5.90;99.90;;;;;;4980330;28;20039;-58
2023/12/22 06:13:45;;;;;;;3.83;0.80;;;5.80;99.90;;;;;;4976664;28;20500;-53
2023/12/22 06:16:18;;;;;;;0.98;0.43;;;5.70;99.90;;;;;;4980795;28;20050;-53
2023/12/22 06:18:45;;;;;;;1.58;0.93;;;5.50;99.90;;;;;;4986848;28;20038;-52
2023/12/22 06:21:12;;;;;;;3.85;0.80;;;5.40;99.90;;;;;;4991688;28;20046;-57
2023/12/22 06:23:39;;;;;;;7.35;0.82;;;5.40;99.90;;;;;;4992165;28;20647;-54
2023/12/22 06:26:10;;;;;;;0.52;0.25;;;5.20;99.90;;;;;;4990717;28;20499;-52
2023/12/22 06:28:39;;;;;;;2.50;0.17;;;5.60;99.90;;;;;;4992219;28;20052;-57
2023/12/22 06:31:07;;;;;;;2.47;0.40;;;5.90;99.90;;;;;;4986874;28;20053;-55
2023/12/22 06:33:34;;;;;;;1.58;0.30;;;5.80;99.90;;;;;;4989430;28;20043;-53
2023/12/22 06:36:01;;;;;;;3.78;0.30;;;5.60;99.90;;;;;;4988957;28;20129;-55
2023/12/22 06:38:28;;;;;;;1.02;0.50;;;5.40;99.90;;;;;;4988129;28;20049;-53
2023/12/22 06:40:55;;;;;;;2.95;0.40;;;5.30;99.90;;;;;;4991843;28;20494;-52
2023/12/22 06:43:22;;;;;;;;;;;5.10;99.90;;;;;;4985588;28;20523;-52
2023/12/22 06:45:49;;;;;;;1.15;0.25;;;4.90;99.90;;;;;;4988133;28;20012;-52
2023/12/22 06:48:16;;;;;;;2.75;0.47;;;4.80;99.90;;;;;;4990932;28;20073;-54
2023/12/22 06:50:44;;;;;;;7.07;4.13;;;4.80;99.90;;;;;;4991604;28;20092;-52
2023/12/22 06:53:12;;;;;;;2.80;0.90;;;4.60;99.90;;;;;;4982096;28;20130;-54
2023/12/22 06:55:51;;;;;;;5.45;2.53;;;4.50;99.90;;;;;;4993290;28;20438;-54
2023/12/22 06:58:21;;;;;;;0.22;0.10;;;4.50;99.90;;;;;;4995706;28;20520;-56
2023/12/22 07:00:48;;;;;;;0.52;0.25;;;4.60;99.90;;;;;;4991357;28;20047;-54
2023/12/22 07:03:16;;;;;;;;;;;4.80;99.90;;;;;;4991136;28;20411;-56
2023/12/22 07:05:44;;;;;;;0.20;0.20;;;5.10;99.90;;;;;;4989825;28;20021;-52
2023/12/22 07:08:11;;;;;;;2.22;0.20;;;5.20;99.90;;;;;;4992543;28;20049;-54
2023/12/22 07:10:38;;;;;;;4.55;0.90;;;5.00;99.90;;;;;;4987516;28;20050;-53
2023/12/22 07:13:06;;;;;;;2.75;1.00;;;4.80;99.90;;;;;;4990866;28;20384;-57
2023/12/22 07:15:33;;;;;;;2.28;0.38;;;4.80;99.90;;;;;;4981208;28;20487;-53
2023/12/22 07:18:01;;;;;;;1.70;0.32;;;5.10;99.90;;;;;;4991825;28;20069;-53
2023/12/22 07:20:28;;;;;;;0.68;0.30;;;5.40;99.90;;;;;;4993648;28;20506;-55
2023/12/22 07:22:56;;;;;;;2.33;0.28;;;5.60;99.90;;;;;;4994787;28;20117;-54
2023/12/22 07:25:23;;;;;;;1.45;0.30;;;5.50;99.90;;;;;;4994393;28;20125;-53
2023/12/22 07:27:51;;;;;;;0.75;0.10;;;5.80;99.90;;;;;;4994443;28;20046;-56
2023/12/22 07:30:18;;;;;;;4.05;1.33;;;5.80;99.90;;;;;;4993868;28;20483;-57
2023/12/22 07:32:51;;;;;;;2.22;0.70;;;5.80;99.90;;;;;;4995010;28;20542;-57
2023/12/22 07:35:18;;;;;;;3.40;0.68;;;6.00;99.90;;;;;;4985860;28;20050;-55
2023/12/22 07:37:45;;;;;;;1.27;0.75;;;6.00;99.90;;;;;;4989673;28;20054;-54
2023/12/22 07:40:12;;;;;;;1.45;0.50;;;5.90;99.90;;;;;;4990608;28;20047;-55
2023/12/22 07:42:39;;;;;;;;;;;6.00;99.90;;;;;;4987198;28;20042;-53
2023/12/22 07:45:07;;;;;;;4.10;1.60;;;6.00;99.90;;;;;;4993987;28;19925;-56
2023/12/22 07:47:38;;;;;;;5.18;1.20;;;5.90;99.90;;;;;;4992355;28;20487;-57
2023/12/22 07:50:08;;;;;;;2.65;0.70;;;5.70;99.90;;;;;;4994354;28;20042;-53
2023/12/22 07:52:38;;;;;;;4.18;2.33;;;5.70;99.90;;;;;;4986754;28;20042;-56
2023/12/22 07:55:11;;;;;;;3.90;1.05;;;5.60;99.90;;;;;;4993861;28;20050;-57
2023/12/22 07:57:38;;;;;;;15.48;1.20;;;5.60;99.90;;;;;;4985576;28;20372;-56
2023/12/22 08:00:05;;;;;;;;;;;5.50;99.90;;;;;;4986535;28;20558;-55
2023/12/22 08:02:37;;;;;;;7.90;3.05;;;5.40;99.90;;;;;;4988440;28;20145;-54
2023/12/22 08:05:05;;;;;;;12.45;6.45;;;5.30;99.90;;;;;;4993718;28;20475;-55
2023/12/22 08:07:32;;;;;;;5.82;2.38;;;5.30;99.90;;;;;;4993650;28;20046;-53
2023/12/22 08:09:58;;;;;;;5.78;3.08;;;5.20;99.90;;;;;;4991965;28;20546;-54
2023/12/22 08:12:26;;;;;;;9.75;2.85;;;5.20;99.90;;;;;;4992288;28;20057;-55
2023/12/22 08:14:53;;;;;;;8.40;3.05;;;5.10;99.90;;;;;;4992819;28;20474;-53
2023/12/22 08:17:20;;;;;;;6.20;3.78;;;5.10;99.90;;;;;;4990904;28;20434;-53
2023/12/22 08:19:47;;;;;;;4.38;1.80;;;4.90;99.90;;;;;;4985693;28;20435;-54
2023/12/22 08:22:15;;;;;;;6.65;2.00;;;4.90;99.90;;;;;;4993083;28;20450;-54
2023/12/22 08:24:44;;;;;;;8.52;2.65;;;4.90;99.90;;;;;;4987265;28;20047;-54
2023/12/22 08:27:11;;;;;;;8.73;3.97;;;5.00;99.90;;;;;;4996595;28;20065;-57
2023/12/22 08:29:37;;;;;;;10.07;3.83;;;4.90;99.90;;;;;;5004519;28;20034;-53
2023/12/22 08:32:04;;;;;;;25.85;12.05;;;4.90;99.90;;;;;;5002884;28;20088;-54
2023/12/22 08:34:31;;;;;;;13.15;5.45;;;4.90;99.90;;;;;;4989959;28;20042;-53
2023/12/22 08:36:59;;;;;;;5.32;0.63;;;4.80;99.90;;;;;;5004436;28;20553;-55
2023/12/22 08:39:26;;;;;;;1.20;0.50;;;4.70;99.90;;;;;;5005050;28;20035;-53
2023/12/22 08:41:54;;;;;;;0.55;0.20;;;5.10;99.90;;;;;;4994568;28;20038;-59
2023/12/22 08:44:21;;;;;;;1.27;0.30;;;5.70;99.90;;;;;;4998552;28;20045;-59
2023/12/22 08:46:48;;;;;;;0.47;0.28;;;6.50;99.90;;;;;;5021396;28;20096;-53
2023/12/22 08:49:15;;;;;;;0.20;0.17;;;6.50;99.90;;;;;;4992656;28;20109;-52
2023/12/22 08:51:42;;;;;;;1.92;0.40;;;6.50;99.90;;;;;;4983048;28;20053;-55
2023/12/22 08:54:09;;;;;;;0.63;0.10;;;6.30;99.90;;;;;;4990273;28;20046;-54
2023/12/22 08:56:36;;;;;;;0.43;0.20;;;5.90;99.90;;;;;;4976032;28;20045;-58
2023/12/22 08:59:03;;;;;;;1.10;0.38;;;5.80;99.90;;;;;;4986452;28;20070;-57
2023/12/22 09:01:30;;;;;;;;;;;5.70;99.90;;;;;;4990234;28;20117;-53
2023/12/22 09:03:57;;;;;;;1.33;0.40;;;5.50;99.90;;;;;;4992216;28;19922;-54
2023/12/22 09:06:24;;;;;;;1.27;0.20;;;5.40;99.90;;;;;;4991016;28;20529;-56
2023/12/22 09:08:52;;;;;;;0.73;0.20;;;5.40;99.90;;;;;;4992275;28;20050;-54
2023/12/22 09:11:20;;;;;;;0.32;0.20;;;5.30;99.90;;;;;;4980911;28;20061;-59
2023/12/22 09:13:47;;;;;;;3.47;0.43;;;5.30;99.90;;;;;;4992111;28;20042;-53
2023/12/22 09:16:24;;;;;;;0.28;0.17;;;5.40;99.90;;;;;;4986564;28;20046;-57
2023/12/22 09:18:52;;;;;;;0.57;0.20;;;5.40;99.90;;;;;;4986388;28;20391;-53
2023/12/22 09:21:19;;;;;;;3.58;1.10;;;5.50;99.90;;;;;;4995489;28;20042;-54
2023/12/22 09:23:46;;;;;;;2.25;0.73;;;5.60;99.90;;;;;;4983254;28;20537;-56
2023/12/22 09:26:14;;;;;;;2.70;0.90;;;5.70;99.90;;;;;;4980537;28;20051;-53
2023/12/22 09:28:42;;;;;;;1.02;0.57;;;5.90;99.90;;;;;;4996591;28;20050;-53
2023/12/22 09:31:09;;;;;;;0.93;0.47;;;6.00;99.90;;;;;;4986292;28;20390;-56
2023/12/22 09:33:36;;;;;;;;;;;6.50;99.90;;;;;;4992275;28;20053;-53
2023/12/22 09:36:04;;;;;;;2.97;0.45;;;6.70;99.90;;;;;;4991254;28;19929;-57
2023/12/22 09:38:30;;;;;;;;;;;7.00;99.90;;;;;;4991218;28;20044;-53
2023/12/22 09:40:58;;;;;;;0.60;0.40;;;7.00;99.90;;;;;;4990236;28;19928;-58
2023/12/22 09:43:25;;;;;;;1.88;0.45;;;7.00;99.90;;;;;;4982816;28;20043;-57
2023/12/22 09:45:52;;;;;;;1.00;0.20;;;7.10;99.90;;;;;;4996324;28;20045;-54
2023/12/22 09:48:27;;;;;;;1.25;0.30;;;7.30;99.90;;;;;;4997715;28;20154;-53
2023/12/22 09:50:54;;;;;;;2.22;0.25;;;7.50;99.90;;;;;;4991097;28;20043;-54
2023/12/22 09:53:22;;;;;;;2.05;0.43;;;7.50;99.90;;;;;;4980572;28;20105;-53
2023/12/22 09:55:49;;;;;;;3.80;0.30;;;7.40;99.90;;;;;;4990292;28;20077;-59
2023/12/22 09:58:17;;;;;;;1.00;0.40;;;7.30;99.90;;;;;;4990898;28;20050;-57
2023/12/22 10:00:44;;;;;;;;;;;7.20;99.90;;;;;;4984625;28;20126;-58
2023/12/22 10:03:12;;;;;;;3.47;0.50;;;7.00;99.90;;;;;;4986603;28;19965;-54
2023/12/22 10:05:43;;;;;;;2.38;0.38;;;6.90;99.90;;;;;;4992087;28;20038;-58
2023/12/22 10:08:10;;;;;;;2.78;0.57;;;6.90;99.90;;;;;;4996278;28;20042;-58
2023/12/22 10:10:39;;;;;;;1.85;0.32;;;6.80;99.90;;;;;;4999757;28;20439;-57
2023/12/22 10:13:09;;;;;;;0.35;0.10;;;6.90;99.90;;;;;;4979621;28;20053;-57
2023/12/22 10:15:42;;;;;;;0.60;0.20;;;6.80;99.90;;;;;;4993772;28;20049;-54
2023/12/22 10:18:09;;;;;;;1.55;0.20;;;6.60;99.90;;;;;;4986559;28;20039;-56
2023/12/22 10:20:36;;;;;;;1.17;0.35;;;6.30;99.90;;;;;;4984230;28;20061;-54
2023/12/22 10:23:03;;;;;;;0.75;0.17;;;6.10;99.90;;;;;;4993581;28;20558;-58
2023/12/22 10:25:32;;;;;;;3.15;0.45;;;6.00;99.90;;;;;;4987400;28;20054;-55
2023/12/22 10:27:59;;;;;;;2.00;0.30;;;5.80;99.90;;;;;;4995659;28;20487;-54
2023/12/22 10:30:27;;;;;;;0.80;0.32;;;5.70;99.90;;;;;;4989787;28;20049;-57
2023/12/22 10:32:54;;;;;;;2.17;0.40;;;5.70;99.90;;;;;;5002490;28;20042;-55
2023/12/22 10:35:23;;;;;;;5.60;3.65;;;5.60;99.90;;;;;;4991726;28;20042;-55
2023/12/22 10:37:53;;;;;;;4.93;3.30;;;5.60;99.90;;;;;;4997742;28;20038;-56
2023/12/22 10:40:21;;;;;;;5.28;3.00;;;5.50;99.90;;;;;;5003015;28;20169;-58
2023/12/22 10:42:48;;;;;;;;;;;5.50;99.90;;;;;;5000234;28;20049;-58
2023/12/22 10:45:17;;;;;;;6.15;2.95;;;5.40;99.90;;;;;;5005881;28;20310;-59
2023/12/22 10:47:44;;;;;;;7.60;3.58;;;5.40;99.90;;;;;;5002900;28;20038;-56
2023/12/22 10:50:14;;;;;;;8.20;3.08;;;5.40;99.90;;;;;;5007761;28;20058;-57
2023/12/22 10:52:41;;;;;;;1.08;0.57;;;5.20;99.90;;;;;;5002624;28;20047;-56
2023/12/22 10:55:08;;;;;;;0.95;0.30;;;5.10;99.90;;;;;;4996811;28;20041;-54
2023/12/22 10:57:37;;;;;;;2.67;0.32;;;5.10;99.90;;;;;;4998040;28;20591;-57
2023/12/22 11:00:07;;;;;;;2.28;0.60;;;5.10;99.90;;;;;;4996840;28;20050;-57
2023/12/22 11:02:37;;;;;;;6.38;0.57;;;5.10;99.90;;;;;;4992419;28;20042;-57
2023/12/22 11:05:05;;;;;;;1.00;0.40;;;5.00;99.90;;;;;;5001064;28;20046;-56
2023/12/22 11:07:35;;;;;;;1.42;0.43;;;5.00;99.90;;;;;;4994580;28;20050;-55
2023/12/22 11:10:04;;;;;;;7.70;3.92;;;4.90;99.90;;;;;;4992591;28;20053;-54
2023/12/22 11:12:35;;;;;;;6.38;2.15;;;4.90;99.90;;;;;;5014333;28;20046;-55
2023/12/22 11:15:05;;;;;;;0.88;0.40;;;5.00;99.90;;;;;;5003103;28;20046;-56
2023/12/22 11:17:34;;;;;;;1.55;0.30;;;4.90;99.90;;;;;;5005790;28;20046;-57
2023/12/22 11:20:03;;;;;;;1.58;0.52;;;4.90;99.90;;;;;;5005720;28;20042;-53
2023/12/22 11:22:32;;;;;;;2.95;0.50;;;4.90;99.90;;;;;;4994503;28;20049;-55
2023/12/22 11:25:00;;;;;;;3.10;0.52;;;4.80;99.90;;;;;;4999133;28;20108;-55
2023/12/22 11:27:28;;;;;;;4.78;1.70;;;4.80;99.90;;;;;;5003716;28;20079;-54
2023/12/22 11:29:56;;;;;;;7.95;3.85;;;4.80;99.90;;;;;;5001038;28;20052;-53
2023/12/22 11:32:23;;;;;;;3.40;1.70;;;4.80;99.90;;;;;;4986447;28;20048;-54
2023/12/22 11:34:53;;;;;;;5.07;2.03;;;4.90;99.90;;;;;;4997548;28;20053;-57
2023/12/22 11:37:20;;;;;;;6.15;3.13;;;4.90;99.90;;;;;;4993695;28;20482;-58
2023/12/22 11:39:48;;;;;;;8.02;2.85;;;5.00;99.90;;;;;;4998822;28;20440;-57
2023/12/22 11:42:19;;;;;;;6.15;1.98;;;5.00;99.90;;;;;;4995198;28;20480;-59
2023/12/22 11:44:46;;;;;;;6.25;3.00;;;5.00;99.90;;;;;;5005798;28;20054;-53
2023/12/22 11:47:14;;;;;;;7.25;3.00;;;4.90;99.90;;;;;;5004654;28;20513;-55
2023/12/22 11:49:41;;;;;;;5.28;2.08;;;4.90;99.90;;;;;;5013483;28;20574;-54
2023/12/22 11:52:15;;;;;;;;;;;4.90;99.90;;;;;;5007428;28;20093;-55
2023/12/22 11:54:49;;;;;;;3.58;0.90;;;4.90;99.90;;;;;;4988546;28;20390;-56
2023/12/22 11:57:31;;;;;;;4.82;1.80;;;5.10;99.90;;;;;;5001941;28;20041;-54
2023/12/22 12:00:11;;;;;;;5.57;2.30;;;5.10;99.90;;;;;;5000129;28;20038;-55
2023/12/22 12:02:40;;;;;;;9.35;5.18;;;5.20;99.90;;;;;;5003218;28;20049;-54
2023/12/22 12:05:08;;;;;;;10.52;6.30;;;5.20;99.90;;;;;;5005654;28;20333;-54
2023/12/22 12:07:44;;;;;;;11.18;6.22;;;5.20;99.90;;;;;;4993553;28;20042;-57
2023/12/22 12:10:21;;;;;;;5.82;3.03;;;5.10;99.90;;;;;;4986968;28;20070;-56
2023/12/22 12:13:04;;;;;;;3.03;2.00;;;5.10;99.90;;;;;;4983744;28;20038;-54
2023/12/22 12:15:34;;;;;;;4.20;2.08;;;5.20;99.90;;;;;;4991548;28;20050;-54
2023/12/22 12:18:01;;;;;;;5.22;2.53;;;5.10;99.90;;;;;;4991863;28;20110;-55
2023/12/22 12:20:28;;;;;;;9.98;4.40;;;5.20;99.90;;;;;;4989240;28;20038;-55
2023/12/22 12:22:56;;;;;;;8.57;5.72;;;5.10;99.90;;;;;;4986615;28;20104;-56
2023/12/22 12:25:25;;;;;;;5.93;3.40;;;5.10;99.90;;;;;;4992966;28;20053;-54
2023/12/22 12:28:04;;;;;;;4.43;2.70;;;5.10;99.90;;;;;;4993663;28;20041;-55
2023/12/22 12:30:33;;;;;;;3.35;2.03;;;5.20;99.90;;;;;;4984764;28;20050;-53
2023/12/22 12:33:09;;;;;;;7.78;5.85;;;5.20;99.90;;;;;;4993535;28;20105;-53
2023/12/22 12:35:43;;;;;;;0.90;0.45;;;5.40;99.90;;;;;;4992955;28;20047;-56
2023/12/22 12:38:17;;;;;;;4.97;3.67;;;5.50;99.90;;;;;;4993567;28;20503;-55
2023/12/22 12:40:48;;;;;;;2.75;1.67;;;5.40;99.90;;;;;;4991613;28;20046;-56
2023/12/22 12:43:15;;;;;;;0.98;0.50;;;5.40;99.90;;;;;;4993346;28;20064;-53
2023/12/22 12:45:42;;;;;;;2.70;1.58;;;5.50;99.90;;;;;;4992698;28;20039;-56
2023/12/22 12:48:09;;;;;;;2.95;1.13;;;5.50;99.90;;;;;;4990208;28;20053;-53
2023/12/22 12:50:36;;;;;;;4.03;2.20;;;5.50;99.90;;;;;;4991511;28;20074;-56
2023/12/22 12:53:05;;;;;;;2.42;1.80;;;5.50;99.90;;;;;;4991250;28;20035;-55
2023/12/22 12:55:32;;;;;;;3.17;1.88;;;5.50;99.90;;;;;;4990790;28;20431;-56
2023/12/22 12:57:59;;;;;;;4.95;1.60;;;5.50;99.90;;;;;;4986395;28;20113;-52
2023/12/22 13:00:27;;;;;;;7.00;3.20;;;5.50;99.90;;;;;;4992837;28;20403;-56
2023/12/22 13:03:15;;;;;;;5.97;2.38;;;5.50;99.90;;;;;;4993029;28;20045;-53